sensor_id;sensor_type;location;lat;lon;timestamp;pressure;altitude;pressure_sealevel;temperature;humidity
78613;BME280;67933;51.060;3.638;2023-03-16T00:00:49;101812.13;;;5.77;78.12
78613;BME280;67933;51.060;3.638;2023-03-16T00:03:15;101822.69;;;5.76;79.08
78613;BME280;67933;51.060;3.638;2023-03-16T00:05:48;101799.03;;;5.74;79.58
78613;BME280;67933;51.060;3.638;2023-03-16T00:08:14;101804.44;;;5.68;79.56
78613;BME280;67933;51.060;3.638;2023-03-16T00:10:40;101806.94;;;5.74;78.93
78613;BME280;67933;51.060;3.638;2023-03-16T00:13:14;101801.66;;;5.74;78.67
78613;BME280;67933;51.060;3.638;2023-03-16T00:15:40;101807.00;;;5.71;79.60
78613;BME280;67933;51.060;3.638;2023-03-16T00:18:06;101799.16;;;5.70;80.21
78613;BME280;67933;51.060;3.638;2023-03-16T00:20:31;101807.94;;;5.69;80.22
78613;BME280;67933;51.060;3.638;2023-03-16T00:22:57;101804.44;;;5.68;79.97
78613;BME280;67933;51.060;3.638;2023-03-16T00:25:23;101802.72;;;5.66;80.43
78613;BME280;67933;51.060;3.638;2023-03-16T00:27:48;101797.53;;;5.64;80.89
78613;BME280;67933;51.060;3.638;2023-03-16T00:30:14;101797.47;;;5.66;80.78
78613;BME280;67933;51.060;3.638;2023-03-16T00:32:40;101805.34;;;5.67;80.78
78613;BME280;67933;51.060;3.638;2023-03-16T00:35:06;101800.09;;;5.66;81.01
78613;BME280;67933;51.060;3.638;2023-03-16T00:37:32;101783.59;;;5.58;80.73
78613;BME280;67933;51.060;3.638;2023-03-16T00:39:58;101794.91;;;5.64;81.15
78613;BME280;67933;51.060;3.638;2023-03-16T00:42:26;101793.03;;;5.68;81.38
78613;BME280;67933;51.060;3.638;2023-03-16T00:44:55;101789.53;;;5.67;81.07
78613;BME280;67933;51.060;3.638;2023-03-16T00:47:23;101777.28;;;5.66;81.18
78613;BME280;67933;51.060;3.638;2023-03-16T00:49:49;101785.25;;;5.63;81.88
78613;BME280;67933;51.060;3.638;2023-03-16T00:52:14;101773.84;;;5.64;81.33
78613;BME280;67933;51.060;3.638;2023-03-16T00:54:44;101780.81;;;5.65;80.90
78613;BME280;67933;51.060;3.638;2023-03-16T00:57:13;101771.16;;;5.66;81.38
78613;BME280;67933;51.060;3.638;2023-03-16T00:59:39;101771.16;;;5.66;81.17
78613;BME280;67933;51.060;3.638;2023-03-16T01:02:06;101765.84;;;5.67;81.30
78613;BME280;67933;51.060;3.638;2023-03-16T01:04:32;101763.22;;;5.67;81.66
78613;BME280;67933;51.060;3.638;2023-03-16T01:06:58;101754.63;;;5.59;81.32
78613;BME280;67933;51.060;3.638;2023-03-16T01:09:24;101754.53;;;5.64;82.50
78613;BME280;67933;51.060;3.638;2023-03-16T01:11:49;101758.94;;;5.63;82.36
78613;BME280;67933;51.060;3.638;2023-03-16T01:14:18;101747.63;;;5.58;82.91
78613;BME280;67933;51.060;3.638;2023-03-16T01:16:43;101740.88;;;5.48;83.16
78613;BME280;67933;51.060;3.638;2023-03-16T01:19:10;101743.47;;;5.50;83.60
78613;BME280;67933;51.060;3.638;2023-03-16T01:21:37;101747.78;;;5.52;83.54
78613;BME280;67933;51.060;3.638;2023-03-16T01:24:03;101755.75;;;5.49;84.33
78613;BME280;67933;51.060;3.638;2023-03-16T01:26:28;101740.88;;;5.48;84.08
78613;BME280;67933;51.060;3.638;2023-03-16T01:28:54;101744.38;;;5.47;84.98
78613;BME280;67933;51.060;3.638;2023-03-16T01:31:19;101733.91;;;5.44;85.22
78613;BME280;67933;51.060;3.638;2023-03-16T01:33:45;101726.06;;;5.42;85.72
78613;BME280;67933;51.060;3.638;2023-03-16T01:36:13;101721.66;;;5.43;85.09
78613;BME280;67933;51.060;3.638;2023-03-16T01:38:40;101711.22;;;5.40;85.76
78613;BME280;67933;51.060;3.638;2023-03-16T01:41:05;101701.56;;;5.40;85.05
78613;BME280;67933;51.060;3.638;2023-03-16T01:43:32;101698.97;;;5.39;85.08
78613;BME280;67933;51.060;3.638;2023-03-16T01:48:37;101685.97;;;5.33;85.69
78613;BME280;67933;51.060;3.638;2023-03-16T01:51:49;101685.97;;;5.33;85.94
78613;BME280;67933;51.060;3.638;2023-03-16T01:54:00;101689.44;;;5.33;86.03
78613;BME280;67933;51.060;3.638;2023-03-16T01:56:37;101683.31;;;5.33;85.54
78613;BME280;67933;51.060;3.638;2023-03-16T01:59:08;101684.19;;;5.33;85.17
78613;BME280;67933;51.060;3.638;2023-03-16T02:01:34;101678.94;;;5.33;85.81
78613;BME280;67933;51.060;3.638;2023-03-16T02:06:48;101672.84;;;5.30;85.97
78613;BME280;67933;51.060;3.638;2023-03-16T02:09:15;101669.34;;;5.31;85.81
78613;BME280;67933;51.060;3.638;2023-03-16T02:11:42;101670.09;;;5.34;85.22
78613;BME280;67933;51.060;3.638;2023-03-16T02:14:10;101679.81;;;5.34;85.44
78613;BME280;67933;51.060;3.638;2023-03-16T02:16:36;101660.44;;;5.35;85.96
78613;BME280;67933;51.060;3.638;2023-03-16T02:19:03;101656.16;;;5.32;86.47
78613;BME280;67933;51.060;3.638;2023-03-16T02:21:37;101657.00;;;5.33;86.62
78613;BME280;67933;51.060;3.638;2023-03-16T02:24:06;101648.22;;;5.34;85.78
78613;BME280;67933;51.060;3.638;2023-03-16T02:26:40;101655.19;;;5.35;86.06
78613;BME280;67933;51.060;3.638;2023-03-16T02:32:17;101652.53;;;5.36;85.79
78613;BME280;67933;51.060;3.638;2023-03-16T02:34:44;101631.50;;;5.35;85.85
78613;BME280;67933;51.060;3.638;2023-03-16T02:37:09;101626.22;;;5.36;85.86
78613;BME280;67933;51.060;3.638;2023-03-16T02:39:36;101620.03;;;5.39;85.78
78613;BME280;67933;51.060;3.638;2023-03-16T02:42:02;101615.66;;;5.38;85.92
78613;BME280;67933;51.060;3.638;2023-03-16T02:44:31;101625.34;;;5.36;86.38
78613;BME280;67933;51.060;3.638;2023-03-16T02:47:07;101603.38;;;5.38;86.13
78613;BME280;67933;51.060;3.638;2023-03-16T02:49:37;101600.78;;;5.37;85.86
78613;BME280;67933;51.060;3.638;2023-03-16T02:52:05;101604.31;;;5.36;86.18
78613;BME280;67933;51.060;3.638;2023-03-16T02:54:30;101601.63;;;5.39;84.89
78613;BME280;67933;51.060;3.638;2023-03-16T02:56:56;101586.72;;;5.38;85.30
78613;BME280;67933;51.060;3.638;2023-03-16T02:59:21;101603.22;;;5.45;84.89
78613;BME280;67933;51.060;3.638;2023-03-16T03:01:47;101592.66;;;5.46;84.61
78613;BME280;67933;51.060;3.638;2023-03-16T03:04:12;101590.03;;;5.46;84.51
78613;BME280;67933;51.060;3.638;2023-03-16T03:06:37;101593.50;;;5.48;84.78
78613;BME280;67933;51.060;3.638;2023-03-16T03:09:04;101598.75;;;5.50;83.78
78613;BME280;67933;51.060;3.638;2023-03-16T03:11:29;101596.09;;;5.50;84.66
78613;BME280;67933;51.060;3.638;2023-03-16T03:13:55;101589.97;;;5.49;84.20
78613;BME280;67933;51.060;3.638;2023-03-16T03:16:21;101579.34;;;5.52;83.57
78613;BME280;67933;51.060;3.638;2023-03-16T03:18:47;101580.31;;;5.50;84.06
78613;BME280;67933;51.060;3.638;2023-03-16T03:21:13;101575.88;;;5.50;83.30
78613;BME280;67933;51.060;3.638;2023-03-16T03:23:38;101576.72;;;5.52;83.05
78613;BME280;67933;51.060;3.638;2023-03-16T03:26:04;101568.00;;;5.50;83.69
78613;BME280;67933;51.060;3.638;2023-03-16T03:28:30;101567.09;;;5.51;83.41
78613;BME280;67933;51.060;3.638;2023-03-16T03:30:56;101563.56;;;5.52;82.75
78613;BME280;67933;51.060;3.638;2023-03-16T03:33:21;101557.44;;;5.52;82.88
78613;BME280;67933;51.060;3.638;2023-03-16T03:35:54;101547.72;;;5.55;82.78
78613;BME280;67933;51.060;3.638;2023-03-16T03:38:21;101550.34;;;5.55;82.44
78613;BME280;67933;51.060;3.638;2023-03-16T03:40:52;101543.34;;;5.54;82.02
78613;BME280;67933;51.060;3.638;2023-03-16T03:43:19;101538.84;;;5.58;82.97
78613;BME280;67933;51.060;3.638;2023-03-16T03:45:45;101541.47;;;5.58;82.34
78613;BME280;67933;51.060;3.638;2023-03-16T03:48:10;101518.88;;;5.51;81.58
78613;BME280;67933;51.060;3.638;2023-03-16T03:50:36;101531.88;;;5.57;81.46
78613;BME280;67933;51.060;3.638;2023-03-16T03:53:04;101521.41;;;5.55;81.18
78613;BME280;67933;51.060;3.638;2023-03-16T03:55:29;101542.22;;;5.64;81.10
78613;BME280;67933;51.060;3.638;2023-03-16T03:57:55;101534.31;;;5.64;80.75
78613;BME280;67933;51.060;3.638;2023-03-16T04:00:20;101536.03;;;5.65;80.23
78613;BME280;67933;51.060;3.638;2023-03-16T04:02:46;101524.59;;;5.66;80.06
78613;BME280;67933;51.060;3.638;2023-03-16T04:05:12;101526.44;;;5.64;80.86
78613;BME280;67933;51.060;3.638;2023-03-16T04:07:37;101514.16;;;5.63;80.28
78613;BME280;67933;51.060;3.638;2023-03-16T04:10:04;101516.78;;;5.63;79.94
78613;BME280;67933;51.060;3.638;2023-03-16T04:12:29;101519.41;;;5.65;80.32
78613;BME280;67933;51.060;3.638;2023-03-16T04:14:55;101516.88;;;5.60;80.51
78613;BME280;67933;51.060;3.638;2023-03-16T04:17:20;101506.47;;;5.56;80.39
78613;BME280;67933;51.060;3.638;2023-03-16T04:19:46;101500.34;;;5.55;80.82
78613;BME280;67933;51.060;3.638;2023-03-16T04:22:12;101497.69;;;5.57;80.79
78613;BME280;67933;51.060;3.638;2023-03-16T04:24:37;101492.44;;;5.55;80.79
78613;BME280;67933;51.060;3.638;2023-03-16T04:27:03;101504.81;;;5.52;80.59
78613;BME280;67933;51.060;3.638;2023-03-16T04:29:28;101507.41;;;5.53;79.98
78613;BME280;67933;51.060;3.638;2023-03-16T04:31:54;101498.78;;;5.48;80.56
78613;BME280;67933;51.060;3.638;2023-03-16T04:34:20;101489.16;;;5.47;80.46
78613;BME280;67933;51.060;3.638;2023-03-16T04:36:50;101490.88;;;5.48;79.30
78613;BME280;67933;51.060;3.638;2023-03-16T04:39:17;101500.53;;;5.48;80.50
78613;BME280;67933;51.060;3.638;2023-03-16T04:41:42;101504.03;;;5.48;79.71
78613;BME280;67933;51.060;3.638;2023-03-16T04:44:08;101506.50;;;5.54;78.08
78613;BME280;67933;51.060;3.638;2023-03-16T04:46:33;101507.41;;;5.53;79.11
78613;BME280;67933;51.060;3.638;2023-03-16T04:49:00;101493.34;;;5.54;78.73
78613;BME280;67933;51.060;3.638;2023-03-16T04:51:26;101493.31;;;5.56;78.04
78613;BME280;67933;51.060;3.638;2023-03-16T04:53:51;101488.00;;;5.57;78.08
78613;BME280;67933;51.060;3.638;2023-03-16T04:56:17;101483.53;;;5.61;77.72
78613;BME280;67933;51.060;3.638;2023-03-16T04:58:47;101478.22;;;5.62;76.69
78613;BME280;67933;51.060;3.638;2023-03-16T05:01:14;101483.47;;;5.62;77.38
78613;BME280;67933;51.060;3.638;2023-03-16T05:03:39;101480.81;;;5.64;76.85
78613;BME280;67933;51.060;3.638;2023-03-16T05:06:05;101480.75;;;5.65;75.92
78613;BME280;67933;51.060;3.638;2023-03-16T05:08:30;101478.97;;;5.66;76.30
78613;BME280;67933;51.060;3.638;2023-03-16T05:10:57;101470.13;;;5.70;75.67
78613;BME280;67933;51.060;3.638;2023-03-16T05:13:23;101468.34;;;5.70;75.41
78613;BME280;67933;51.060;3.638;2023-03-16T05:15:49;101467.47;;;5.70;75.69
78613;BME280;67933;51.060;3.638;2023-03-16T05:18:18;101469.97;;;5.74;75.15
78613;BME280;67933;51.060;3.638;2023-03-16T05:20:43;101478.78;;;5.73;75.76
78613;BME280;67933;51.060;3.638;2023-03-16T05:23:09;101467.38;;;5.73;75.27
78613;BME280;67933;51.060;3.638;2023-03-16T05:25:36;101467.38;;;5.73;75.28
78613;BME280;67933;51.060;3.638;2023-03-16T05:28:01;101459.44;;;5.74;74.47
78613;BME280;67933;51.060;3.638;2023-03-16T05:30:27;101468.16;;;5.76;74.68
78613;BME280;67933;51.060;3.638;2023-03-16T05:32:52;101461.09;;;5.78;74.27
78613;BME280;67933;51.060;3.638;2023-03-16T05:35:18;101465.47;;;5.79;74.51
78613;BME280;67933;51.060;3.638;2023-03-16T05:37:45;101463.63;;;5.81;73.61
78613;BME280;67933;51.060;3.638;2023-03-16T05:40:12;101468.84;;;5.83;74.12
78613;BME280;67933;51.060;3.638;2023-03-16T05:42:46;101473.09;;;5.89;73.21
78613;BME280;67933;51.060;3.638;2023-03-16T05:45:13;101461.75;;;5.87;74.49
78613;BME280;67933;51.060;3.638;2023-03-16T05:47:39;101460.03;;;5.86;73.20
78613;BME280;67933;51.060;3.638;2023-03-16T05:50:06;101451.25;;;5.85;72.66
78613;BME280;67933;51.060;3.638;2023-03-16T05:52:34;101463.69;;;5.80;72.80
78613;BME280;67933;51.060;3.638;2023-03-16T05:54:59;101474.03;;;5.86;72.53
78613;BME280;67933;51.060;3.638;2023-03-16T05:57:25;101460.06;;;5.84;72.90
78613;BME280;67933;51.060;3.638;2023-03-16T05:59:50;101450.47;;;5.81;73.10
78613;BME280;67933;51.060;3.638;2023-03-16T06:02:17;101446.94;;;5.82;73.92
78613;BME280;67933;51.060;3.638;2023-03-16T06:04:42;101456.56;;;5.84;73.31
78613;BME280;67933;51.060;3.638;2023-03-16T06:07:07;101447.72;;;5.88;72.62
78613;BME280;67933;51.060;3.638;2023-03-16T06:09:33;101456.53;;;5.85;73.08
78613;BME280;67933;51.060;3.638;2023-03-16T06:11:58;101461.00;;;5.81;73.17
78613;BME280;67933;51.060;3.638;2023-03-16T06:14:24;101466.19;;;5.85;72.36
78613;BME280;67933;51.060;3.638;2023-03-16T06:16:49;101453.09;;;5.81;72.38
78613;BME280;67933;51.060;3.638;2023-03-16T06:19:15;101455.72;;;5.81;71.69
78613;BME280;67933;51.060;3.638;2023-03-16T06:21:41;101454.03;;;5.80;72.93
78613;BME280;67933;51.060;3.638;2023-03-16T06:24:07;101448.13;;;5.72;72.01
78613;BME280;67933;51.060;3.638;2023-03-16T06:26:34;101469.88;;;5.79;72.60
78613;BME280;67933;51.060;3.638;2023-03-16T06:28:59;101470.75;;;5.78;71.62
78613;BME280;67933;51.060;3.638;2023-03-16T06:31:25;101472.28;;;5.87;71.17
78613;BME280;67933;51.060;3.638;2023-03-16T06:33:50;101452.84;;;5.92;71.95
78613;BME280;67933;51.060;3.638;2023-03-16T06:36:15;101449.25;;;5.95;71.02
78613;BME280;67933;51.060;3.638;2023-03-16T06:38:41;101451.78;;;5.98;70.45
78613;BME280;67933;51.060;3.638;2023-03-16T06:41:07;101451.00;;;5.96;69.88
78613;BME280;67933;51.060;3.638;2023-03-16T06:43:32;101447.19;;;6.04;70.08
78613;BME280;67933;51.060;3.638;2023-03-16T06:45:58;101459.38;;;6.08;69.49
78613;BME280;67933;51.060;3.638;2023-03-16T06:48:23;101472.53;;;6.10;69.74
78613;BME280;67933;51.060;3.638;2023-03-16T06:50:49;101467.88;;;6.18;68.92
78613;BME280;67933;51.060;3.638;2023-03-16T06:53:14;101467.69;;;6.24;69.24
78613;BME280;67933;51.060;3.638;2023-03-16T06:55:39;101465.66;;;6.34;68.44
78613;BME280;67933;51.060;3.638;2023-03-16T06:58:05;101458.03;;;6.52;67.86
78613;BME280;67933;51.060;3.638;2023-03-16T07:00:31;101462.03;;;6.66;67.15
78613;BME280;67933;51.060;3.638;2023-03-16T07:02:58;101459.81;;;6.80;66.34
78613;BME280;67933;51.060;3.638;2023-03-16T07:05:24;101455.88;;;6.93;67.79
78613;BME280;67933;51.060;3.638;2023-03-16T07:07:49;101460.63;;;7.08;66.73
78613;BME280;67933;51.060;3.638;2023-03-16T07:10:16;101457.38;;;7.26;66.22
78613;BME280;67933;51.060;3.638;2023-03-16T07:12:43;101457.84;;;7.38;66.39
78613;BME280;67933;51.060;3.638;2023-03-16T07:15:09;101458.63;;;7.41;63.22
78613;BME280;67933;51.060;3.638;2023-03-16T07:17:35;101448.13;;;7.64;62.89
78613;BME280;67933;51.060;3.638;2023-03-16T07:20:00;101463.38;;;7.81;62.09
78613;BME280;67933;51.060;3.638;2023-03-16T07:22:30;101464.28;;;8.03;61.67
78613;BME280;67933;51.060;3.638;2023-03-16T07:24:56;101456.59;;;8.21;61.41
78613;BME280;67933;51.060;3.638;2023-03-16T07:27:22;101450.16;;;8.28;59.45
78613;BME280;67933;51.060;3.638;2023-03-16T07:29:49;101458.59;;;8.37;58.13
78613;BME280;67933;51.060;3.638;2023-03-16T07:32:14;101448.66;;;8.44;58.37
78613;BME280;67933;51.060;3.638;2023-03-16T07:34:40;101450.88;;;8.33;57.96
78613;BME280;67933;51.060;3.638;2023-03-16T07:37:06;101453.22;;;8.40;58.44
78613;BME280;67933;51.060;3.638;2023-03-16T07:39:33;101452.81;;;8.51;55.84
78613;BME280;67933;51.060;3.638;2023-03-16T07:41:58;101462.31;;;8.55;57.59
78613;BME280;67933;51.060;3.638;2023-03-16T07:44:24;101466.25;;;8.45;57.22
78613;BME280;67933;51.060;3.638;2023-03-16T07:46:49;101461.03;;;8.43;58.99
78613;BME280;67933;51.060;3.638;2023-03-16T07:49:15;101455.56;;;8.48;57.53
78613;BME280;67933;51.060;3.638;2023-03-16T07:51:41;101459.13;;;8.47;56.40
78613;BME280;67933;51.060;3.638;2023-03-16T07:54:06;101448.84;;;8.39;56.82
78613;BME280;67933;51.060;3.638;2023-03-16T07:56:32;101439.59;;;8.51;56.87
78613;BME280;67933;51.060;3.638;2023-03-16T07:58:57;101446.75;;;8.69;56.80
78613;BME280;67933;51.060;3.638;2023-03-16T08:01:23;101434.91;;;8.79;56.83
78613;BME280;67933;51.060;3.638;2023-03-16T08:03:48;101443.06;;;8.95;55.82
78613;BME280;67933;51.060;3.638;2023-03-16T08:06:13;101441.44;;;9.33;54.53
78613;BME280;67933;51.060;3.638;2023-03-16T08:08:39;101437.22;;;9.29;52.47
78613;BME280;67933;51.060;3.638;2023-03-16T08:11:04;101432.44;;;9.37;55.00
78613;BME280;67933;51.060;3.638;2023-03-16T08:13:30;101432.19;;;9.43;54.64
78613;BME280;67933;51.060;3.638;2023-03-16T08:15:55;101447.72;;;9.31;53.60
78613;BME280;67933;51.060;3.638;2023-03-16T08:18:29;101446.53;;;9.38;54.52
78613;BME280;67933;51.060;3.638;2023-03-16T08:20:55;101442.84;;;9.42;55.90
78613;BME280;67933;51.060;3.638;2023-03-16T08:23:22;101434.69;;;9.26;54.71
78613;BME280;67933;51.060;3.638;2023-03-16T08:25:56;101443.94;;;9.16;54.28
78613;BME280;67933;51.060;3.638;2023-03-16T08:28:22;101444.88;;;9.15;56.44
78613;BME280;67933;51.060;3.638;2023-03-16T08:30:51;101448.16;;;9.00;54.70
78613;BME280;67933;51.060;3.638;2023-03-16T08:33:18;101441.69;;;9.07;57.64
78613;BME280;67933;51.060;3.638;2023-03-16T08:35:46;101437.06;;;9.12;55.96
78613;BME280;67933;51.060;3.638;2023-03-16T08:38:13;101439.72;;;9.12;56.36
78613;BME280;67933;51.060;3.638;2023-03-16T08:40:40;101427.69;;;9.05;54.29
78613;BME280;67933;51.060;3.638;2023-03-16T08:43:14;101429.25;;;9.09;54.62
78613;BME280;67933;51.060;3.638;2023-03-16T08:45:39;101435.19;;;9.14;54.42
78613;BME280;67933;51.060;3.638;2023-03-16T08:48:05;101439.47;;;9.18;54.24
78613;BME280;67933;51.060;3.638;2023-03-16T08:50:31;101431.41;;;9.21;52.98
78613;BME280;67933;51.060;3.638;2023-03-16T08:52:57;101450.31;;;9.32;51.80
78613;BME280;67933;51.060;3.638;2023-03-16T08:55:23;101440.00;;;9.26;51.82
78613;BME280;67933;51.060;3.638;2023-03-16T08:57:49;101454.47;;;9.38;53.97
78613;BME280;67933;51.060;3.638;2023-03-16T09:00:14;101447.94;;;9.46;52.54
78613;BME280;67933;51.060;3.638;2023-03-16T09:02:40;101436.59;;;9.63;50.91
78613;BME280;67933;51.060;3.638;2023-03-16T09:05:08;101436.16;;;9.74;52.31
78613;BME280;67933;51.060;3.638;2023-03-16T09:07:34;101430.16;;;9.89;52.00
78613;BME280;67933;51.060;3.638;2023-03-16T09:10:01;101444.84;;;9.76;52.48
78613;BME280;67933;51.060;3.638;2023-03-16T09:12:27;101441.84;;;9.64;51.80
78613;BME280;67933;51.060;3.638;2023-03-16T09:14:52;101431.13;;;9.68;52.76
78613;BME280;67933;51.060;3.638;2023-03-16T09:17:18;101431.06;;;9.88;50.09
78613;BME280;67933;51.060;3.638;2023-03-16T09:19:45;101434.44;;;9.91;51.97
78613;BME280;67933;51.060;3.638;2023-03-16T09:22:11;101429.56;;;10.01;49.75
78613;BME280;67933;51.060;3.638;2023-03-16T09:24:36;101432.09;;;10.04;49.61
78613;BME280;67933;51.060;3.638;2023-03-16T09:27:01;101430.31;;;10.04;50.06
78613;BME280;67933;51.060;3.638;2023-03-16T09:29:27;101432.91;;;10.25;50.94
78613;BME280;67933;51.060;3.638;2023-03-16T09:31:52;101434.41;;;10.30;49.04
78613;BME280;67933;51.060;3.638;2023-03-16T09:34:18;101426.88;;;10.40;48.70
78613;BME280;67933;51.060;3.638;2023-03-16T09:36:44;101433.91;;;10.60;48.64
78613;BME280;67933;51.060;3.638;2023-03-16T09:39:09;101426.31;;;10.88;49.17
78613;BME280;67933;51.060;3.638;2023-03-16T09:45:05;101428.19;;;11.55;48.73
78613;BME280;67933;51.060;3.638;2023-03-16T09:47:11;101422.66;;;11.77;45.65
78613;BME280;67933;51.060;3.638;2023-03-16T09:49:43;101421.00;;;11.40;46.00
78613;BME280;67933;51.060;3.638;2023-03-16T09:52:30;101424.19;;;11.64;47.40
78613;BME280;67933;51.060;3.638;2023-03-16T09:55:06;101427.56;;;11.84;46.72
78613;BME280;67933;51.060;3.638;2023-03-16T09:57:40;101420.03;;;12.24;47.25
78613;BME280;67933;51.060;3.638;2023-03-16T10:00:14;101402.03;;;12.45;44.53
78613;BME280;67933;51.060;3.638;2023-03-16T10:05:31;101398.91;;;13.72;43.10
78613;BME280;67933;51.060;3.638;2023-03-16T10:08:07;101383.09;;;14.79;41.49
78613;BME280;67933;51.060;3.638;2023-03-16T10:13:15;101389.38;;;14.24;41.90
78613;BME280;67933;51.060;3.638;2023-03-16T10:15:47;101378.84;;;14.36;40.88
78613;BME280;67933;51.060;3.638;2023-03-16T10:18:20;101372.19;;;14.29;42.13
78613;BME280;67933;51.060;3.638;2023-03-16T10:20:49;101372.22;;;13.86;40.93
78613;BME280;67933;51.060;3.638;2023-03-16T10:23:19;101374.50;;;13.35;41.35
78613;BME280;67933;51.060;3.638;2023-03-16T10:25:54;101375.19;;;13.39;42.58
78613;BME280;67933;51.060;3.638;2023-03-16T10:28:30;101372.19;;;13.15;42.65
78613;BME280;67933;51.060;3.638;2023-03-16T10:30:59;101376.44;;;13.62;43.53
78613;BME280;67933;51.060;3.638;2023-03-16T10:33:28;101377.56;;;13.58;42.10
78613;BME280;67933;51.060;3.638;2023-03-16T10:38:42;101343.91;;;14.12;41.47
78613;BME280;67933;51.060;3.638;2023-03-16T10:43:48;101350.53;;;14.33;39.49
78613;BME280;67933;51.060;3.638;2023-03-16T10:46:14;101354.16;;;14.32;41.43
78613;BME280;67933;51.060;3.638;2023-03-16T10:48:40;101346.53;;;14.67;39.12
78613;BME280;67933;51.060;3.638;2023-03-16T10:51:14;101339.44;;;15.06;39.03
78613;BME280;67933;51.060;3.638;2023-03-16T10:53:42;101335.34;;;14.75;39.49
78613;BME280;67933;51.060;3.638;2023-03-16T10:56:19;101327.56;;;14.45;39.73
78613;BME280;67933;51.060;3.638;2023-03-16T10:58:44;101329.03;;;14.49;41.14
78613;BME280;67933;51.060;3.638;2023-03-16T11:01:23;101329.19;;;14.60;39.82
78613;BME280;67933;51.060;3.638;2023-03-16T11:03:52;101350.31;;;13.95;40.17
78613;BME280;67933;51.060;3.638;2023-03-16T11:06:25;101338.25;;;13.90;41.45
78613;BME280;67933;51.060;3.638;2023-03-16T11:09:02;101343.19;;;14.37;40.92
78613;BME280;67933;51.060;3.638;2023-03-16T11:11:31;101339.38;;;14.41;41.34
78613;BME280;67933;51.060;3.638;2023-03-16T11:14:00;101342.78;;;15.22;39.47
78613;BME280;67933;51.060;3.638;2023-03-16T11:16:39;101334.03;;;15.70;39.54
78613;BME280;67933;51.060;3.638;2023-03-16T11:19:16;101331.53;;;15.80;38.89
78613;BME280;67933;51.060;3.638;2023-03-16T11:24:44;101329.34;;;17.17;37.97
78613;BME280;67933;51.060;3.638;2023-03-16T11:29:57;101300.53;;;17.65;34.17
78613;BME280;67933;51.060;3.638;2023-03-16T11:32:31;101297.78;;;18.10;33.70
78613;BME280;67933;51.060;3.638;2023-03-16T11:34:57;101301.69;;;17.27;34.98
78613;BME280;67933;51.060;3.638;2023-03-16T11:43:00;101284.88;;;17.37;33.88
78613;BME280;67933;51.060;3.638;2023-03-16T11:45:35;101297.19;;;16.71;33.46
78613;BME280;67933;51.060;3.638;2023-03-16T11:51:03;101264.75;;;16.63;34.91
78613;BME280;67933;51.060;3.638;2023-03-16T11:59:13;101252.44;;;16.36;36.51
78613;BME280;67933;51.060;3.638;2023-03-16T12:02:00;101246.28;;;16.82;33.80
78613;BME280;67933;51.060;3.638;2023-03-16T12:05:06;101261.34;;;16.61;34.46
78613;BME280;67933;51.060;3.638;2023-03-16T12:10:25;101252.91;;;17.00;34.16
78613;BME280;67933;51.060;3.638;2023-03-16T12:15:48;101237.22;;;17.62;34.79
78613;BME280;67933;51.060;3.638;2023-03-16T12:18:21;101204.63;;;17.56;33.20
78613;BME280;67933;51.060;3.638;2023-03-16T12:20:58;101237.28;;;17.83;34.70
78613;BME280;67933;51.060;3.638;2023-03-16T12:23:38;101225.63;;;18.05;32.90
78613;BME280;67933;51.060;3.638;2023-03-16T12:26:05;101217.13;;;18.00;32.21
78613;BME280;67933;51.060;3.638;2023-03-16T12:28:31;101223.09;;;18.03;33.63
78613;BME280;67933;51.060;3.638;2023-03-16T12:31:21;101219.50;;;18.14;34.62
78613;BME280;67933;51.060;3.638;2023-03-16T12:34:08;101223.09;;;18.03;32.71
78613;BME280;67933;51.060;3.638;2023-03-16T12:39:34;101212.47;;;17.03;33.62
78613;BME280;67933;51.060;3.638;2023-03-16T12:42:31;101203.59;;;18.01;35.16
78613;BME280;67933;51.060;3.638;2023-03-16T12:45:44;101213.88;;;18.49;31.39
78613;BME280;67933;51.060;3.638;2023-03-16T12:50:47;101211.97;;;17.65;34.35
78613;BME280;67933;51.060;3.638;2023-03-16T12:56:36;101192.69;;;17.49;33.54
78613;BME280;67933;51.060;3.638;2023-03-16T12:59:18;101194.78;;;17.34;34.03
78613;BME280;67933;51.060;3.638;2023-03-16T13:02:08;101187.34;;;17.49;33.50
78613;BME280;67933;51.060;3.638;2023-03-16T13:04:41;101187.38;;;18.24;34.05
78613;BME280;67933;51.060;3.638;2023-03-16T13:09:35;101186.44;;;18.14;32.30
78613;BME280;67933;51.060;3.638;2023-03-16T13:12:07;101157.19;;;17.67;32.74
78613;BME280;67933;51.060;3.638;2023-03-16T13:14:38;101168.56;;;18.03;33.40
78613;BME280;67933;51.060;3.638;2023-03-16T13:17:06;101182.00;;;18.44;32.87
78613;BME280;67933;51.060;3.638;2023-03-16T13:23:06;101167.72;;;17.48;34.22
78613;BME280;67933;51.060;3.638;2023-03-16T13:25:41;101157.44;;;17.42;32.98
78613;BME280;67933;51.060;3.638;2023-03-16T13:28:13;101158.72;;;17.05;32.60
78613;BME280;67933;51.060;3.638;2023-03-16T13:30:48;101162.22;;;17.50;33.42
78613;BME280;67933;51.060;3.638;2023-03-16T13:35:45;101151.63;;;17.48;33.50
78613;BME280;67933;51.060;3.638;2023-03-16T13:38:13;101150.69;;;17.81;34.34
78613;BME280;67933;51.060;3.638;2023-03-16T13:40:49;101138.97;;;17.82;33.40
78613;BME280;67933;51.060;3.638;2023-03-16T13:43:18;101121.97;;;17.50;33.10
78613;BME280;67933;51.060;3.638;2023-03-16T13:45:44;101112.25;;;17.38;32.70
78613;BME280;67933;51.060;3.638;2023-03-16T13:48:11;101121.56;;;16.89;33.83
78613;BME280;67933;51.060;3.638;2023-03-16T13:50:38;101127.53;;;16.81;33.72
78613;BME280;67933;51.060;3.638;2023-03-16T13:53:20;101118.84;;;17.22;33.97
78613;BME280;67933;51.060;3.638;2023-03-16T13:55:48;101116.00;;;17.46;32.87
78613;BME280;67933;51.060;3.638;2023-03-16T13:58:28;101120.28;;;17.38;33.50
78613;BME280;67933;51.060;3.638;2023-03-16T14:00:57;101114.63;;;17.09;33.81
78613;BME280;67933;51.060;3.638;2023-03-16T14:05:58;101109.38;;;16.85;33.74
78613;BME280;67933;51.060;3.638;2023-03-16T14:08:24;101107.69;;;16.95;34.40
78613;BME280;67933;51.060;3.638;2023-03-16T14:10:53;101101.78;;;17.12;35.44